sensor_id;sensor_type;location;lat;lon;timestamp;P1;durP1;ratioP1;P2;durP2;ratioP2
2105;SDS011;1059;52.548;13.408;2022-09-11T00:01:50;7.47;;;6.77;;
2105;SDS011;1059;52.548;13.408;2022-09-11T00:04:17;7.50;;;6.40;;
2105;SDS011;1059;52.548;13.408;2022-09-11T00:06:44;7.27;;;6.57;;
2105;SDS011;1059;52.548;13.408;2022-09-11T00:09:11;8.63;;;7.57;;
2105;SDS011;1059;52.548;13.408;2022-09-11T00:11:40;7.07;;;6.47;;
2105;SDS011;1059;52.548;13.408;2022-09-11T00:14:07;7.87;;;6.70;;
2105;SDS011;1059;52.548;13.408;2022-09-11T00:16:37;7.70;;;6.90;;
2105;SDS011;1059;52.548;13.408;2022-09-11T00:19:06;7.67;;;6.87;;
2105;SDS011;1059;52.548;13.408;2022-09-11T00:21:33;7.90;;;7.20;;
2105;SDS011;1059;52.548;13.408;2022-09-11T00:24:01;7.77;;;6.67;;
2105;SDS011;1059;52.548;13.408;2022-09-11T00:26:28;7.23;;;6.53;;
2105;SDS011;1059;52.548;13.408;2022-09-11T00:28:56;10.00;;;7.43;;
2105;SDS011;1059;52.548;13.408;2022-09-11T00:31:26;9.70;;;7.93;;
2105;SDS011;1059;52.548;13.408;2022-09-11T00:33:54;8.20;;;7.40;;
2105;SDS011;1059;52.548;13.408;2022-09-11T00:36:23;8.17;;;7.40;;
2105;SDS011;1059;52.548;13.408;2022-09-11T00:38:51;8.53;;;7.73;;
2105;SDS011;1059;52.548;13.408;2022-09-11T00:41:19;8.77;;;7.53;;
2105;SDS011;1059;52.548;13.408;2022-09-11T00:43:58;8.57;;;7.77;;
2105;SDS011;1059;52.548;13.408;2022-09-11T00:46:35;10.03;;;8.33;;
2105;SDS011;1059;52.548;13.408;2022-09-11T00:49:09;10.90;;;8.13;;
2105;SDS011;1059;52.548;13.408;2022-09-11T00:51:41;8.60;;;7.57;;
2105;SDS011;1059;52.548;13.408;2022-09-11T00:54:10;8.33;;;7.53;;
2105;SDS011;1059;52.548;13.408;2022-09-11T00:56:39;7.50;;;6.80;;
2105;SDS011;1059;52.548;13.408;2022-09-11T00:59:08;7.67;;;6.90;;
2105;SDS011;1059;52.548;13.408;2022-09-11T01:01:37;8.63;;;6.80;;
2105;SDS011;1059;52.548;13.408;2022-09-11T01:04:04;9.13;;;7.13;;
2105;SDS011;1059;52.548;13.408;2022-09-11T01:06:32;9.13;;;6.73;;
2105;SDS011;1059;52.548;13.408;2022-09-11T01:08:59;7.83;;;7.13;;
2105;SDS011;1059;52.548;13.408;2022-09-11T01:11:30;8.50;;;6.73;;
2105;SDS011;1059;52.548;13.408;2022-09-11T01:14:12;7.83;;;7.03;;
2105;SDS011;1059;52.548;13.408;2022-09-11T01:16:55;7.23;;;6.33;;
2105;SDS011;1059;52.548;13.408;2022-09-11T01:19:34;7.03;;;6.33;;
2105;SDS011;1059;52.548;13.408;2022-09-11T01:22:19;7.50;;;6.63;;
2105;SDS011;1059;52.548;13.408;2022-09-11T01:25:07;9.10;;;7.10;;
2105;SDS011;1059;52.548;13.408;2022-09-11T01:27:47;8.90;;;7.27;;
2105;SDS011;1059;52.548;13.408;2022-09-11T01:30:16;7.60;;;6.77;;
2105;SDS011;1059;52.548;13.408;2022-09-11T01:32:51;6.93;;;6.23;;
2105;SDS011;1059;52.548;13.408;2022-09-11T01:35:39;8.50;;;6.50;;
2105;SDS011;1059;52.548;13.408;2022-09-11T01:38:11;8.10;;;6.60;;
2105;SDS011;1059;52.548;13.408;2022-09-11T01:40:44;7.93;;;7.00;;
2105;SDS011;1059;52.548;13.408;2022-09-11T01:43:19;7.27;;;6.07;;
2105;SDS011;1059;52.548;13.408;2022-09-11T01:45:51;6.90;;;6.10;;
2105;SDS011;1059;52.548;13.408;2022-09-11T01:48:20;7.73;;;7.00;;
2105;SDS011;1059;52.548;13.408;2022-09-11T01:50:50;8.43;;;6.50;;
2105;SDS011;1059;52.548;13.408;2022-09-11T01:53:20;8.67;;;6.37;;
2105;SDS011;1059;52.548;13.408;2022-09-11T01:55:53;7.23;;;6.40;;
2105;SDS011;1059;52.548;13.408;2022-09-11T01:58:28;7.20;;;6.60;;
2105;SDS011;1059;52.548;13.408;2022-09-11T02:00:58;7.00;;;6.33;;
2105;SDS011;1059;52.548;13.408;2022-09-11T02:03:30;7.30;;;6.53;;
2105;SDS011;1059;52.548;13.408;2022-09-11T02:06:03;7.23;;;6.53;;
2105;SDS011;1059;52.548;13.408;2022-09-11T02:08:35;7.70;;;7.00;;
2105;SDS011;1059;52.548;13.408;2022-09-11T02:11:06;6.67;;;6.07;;
2105;SDS011;1059;52.548;13.408;2022-09-11T02:13:38;7.30;;;6.17;;
2105;SDS011;1059;52.548;13.408;2022-09-11T02:16:13;7.80;;;6.57;;
2105;SDS011;1059;52.548;13.408;2022-09-11T02:18:47;6.70;;;5.93;;
2105;SDS011;1059;52.548;13.408;2022-09-11T02:21:21;7.80;;;6.30;;
2105;SDS011;1059;52.548;13.408;2022-09-11T02:23:49;7.30;;;5.70;;
2105;SDS011;1059;52.548;13.408;2022-09-11T02:26:16;7.03;;;6.30;;
2105;SDS011;1059;52.548;13.408;2022-09-11T02:28:47;10.33;;;6.67;;
2105;SDS011;1059;52.548;13.408;2022-09-11T02:31:13;6.67;;;6.07;;
2105;SDS011;1059;52.548;13.408;2022-09-11T02:34:02;6.93;;;6.27;;
2105;SDS011;1059;52.548;13.408;2022-09-11T02:36:32;7.43;;;6.63;;
2105;SDS011;1059;52.548;13.408;2022-09-11T02:39:25;7.40;;;6.63;;
2105;SDS011;1059;52.548;13.408;2022-09-11T02:42:11;6.00;;;5.47;;
2105;SDS011;1059;52.548;13.408;2022-09-11T02:44:49;7.23;;;6.17;;
2105;SDS011;1059;52.548;13.408;2022-09-11T02:47:24;7.03;;;6.33;;
2105;SDS011;1059;52.548;13.408;2022-09-11T02:50:04;7.60;;;6.37;;
2105;SDS011;1059;52.548;13.408;2022-09-11T02:52:41;7.77;;;6.20;;
2105;SDS011;1059;52.548;13.408;2022-09-11T02:55:15;8.40;;;6.30;;
2105;SDS011;1059;52.548;13.408;2022-09-11T02:57:50;6.63;;;5.93;;
2105;SDS011;1059;52.548;13.408;2022-09-11T03:00:25;8.47;;;7.63;;
2105;SDS011;1059;52.548;13.408;2022-09-11T03:02:52;9.67;;;8.00;;
2105;SDS011;1059;52.548;13.408;2022-09-11T03:05:19;9.80;;;8.30;;
2105;SDS011;1059;52.548;13.408;2022-09-11T03:07:46;9.30;;;8.40;;
2105;SDS011;1059;52.548;13.408;2022-09-11T03:10:13;9.83;;;7.30;;
2105;SDS011;1059;52.548;13.408;2022-09-11T03:12:40;9.10;;;8.10;;
2105;SDS011;1059;52.548;13.408;2022-09-11T03:15:07;10.67;;;8.80;;
2105;SDS011;1059;52.548;13.408;2022-09-11T03:17:36;10.83;;;8.23;;
2105;SDS011;1059;52.548;13.408;2022-09-11T03:20:04;9.80;;;8.40;;
2105;SDS011;1059;52.548;13.408;2022-09-11T03:22:32;22.20;;;13.43;;
2105;SDS011;1059;52.548;13.408;2022-09-11T03:24:59;28.30;;;15.93;;
2105;SDS011;1059;52.548;13.408;2022-09-11T03:27:25;46.83;;;22.07;;
2105;SDS011;1059;52.548;13.408;2022-09-11T03:29:52;23.17;;;13.63;;
2105;SDS011;1059;52.548;13.408;2022-09-11T03:32:20;14.90;;;11.40;;
2105;SDS011;1059;52.548;13.408;2022-09-11T03:34:48;14.63;;;10.40;;
2105;SDS011;1059;52.548;13.408;2022-09-11T03:37:16;14.90;;;10.70;;
2105;SDS011;1059;52.548;13.408;2022-09-11T03:39:43;12.63;;;10.10;;
2105;SDS011;1059;52.548;13.408;2022-09-11T03:42:09;15.50;;;12.17;;
2105;SDS011;1059;52.548;13.408;2022-09-11T03:44:37;13.60;;;11.80;;
2105;SDS011;1059;52.548;13.408;2022-09-11T03:47:05;12.63;;;11.27;;
2105;SDS011;1059;52.548;13.408;2022-09-11T03:49:32;11.97;;;10.70;;
2105;SDS011;1059;52.548;13.408;2022-09-11T03:52:01;13.90;;;11.80;;
2105;SDS011;1059;52.548;13.408;2022-09-11T03:54:28;13.27;;;11.83;;
2105;SDS011;1059;52.548;13.408;2022-09-11T03:56:59;13.17;;;10.57;;
2105;SDS011;1059;52.548;13.408;2022-09-11T03:59:25;17.13;;;12.33;;
2105;SDS011;1059;52.548;13.408;2022-09-11T04:01:53;13.60;;;11.40;;
2105;SDS011;1059;52.548;13.408;2022-09-11T04:04:19;13.80;;;11.17;;
2105;SDS011;1059;52.548;13.408;2022-09-11T04:06:47;14.00;;;10.90;;
2105;SDS011;1059;52.548;13.408;2022-09-11T04:09:15;12.83;;;10.90;;
2105;SDS011;1059;52.548;13.408;2022-09-11T04:11:42;13.60;;;10.37;;
2105;SDS011;1059;52.548;13.408;2022-09-11T04:14:09;11.43;;;9.83;;
2105;SDS011;1059;52.548;13.408;2022-09-11T04:16:36;13.73;;;10.67;;
2105;SDS011;1059;52.548;13.408;2022-09-11T04:19:03;13.67;;;10.43;;
2105;SDS011;1059;52.548;13.408;2022-09-11T04:21:30;15.33;;;11.30;;
2105;SDS011;1059;52.548;13.408;2022-09-11T04:23:59;15.53;;;10.73;;
2105;SDS011;1059;52.548;13.408;2022-09-11T04:26:28;13.83;;;11.03;;
2105;SDS011;1059;52.548;13.408;2022-09-11T04:28:57;14.77;;;11.60;;
2105;SDS011;1059;52.548;13.408;2022-09-11T04:31:24;13.87;;;10.77;;
2105;SDS011;1059;52.548;13.408;2022-09-11T04:33:52;16.73;;;12.27;;
2105;SDS011;1059;52.548;13.408;2022-09-11T04:36:19;17.20;;;12.03;;
2105;SDS011;1059;52.548;13.408;2022-09-11T04:38:52;20.33;;;12.17;;
2105;SDS011;1059;52.548;13.408;2022-09-11T04:41:20;15.07;;;11.00;;
2105;SDS011;1059;52.548;13.408;2022-09-11T04:43:48;17.70;;;12.33;;
2105;SDS011;1059;52.548;13.408;2022-09-11T04:46:19;18.10;;;11.67;;
2105;SDS011;1059;52.548;13.408;2022-09-11T04:48:46;23.23;;;13.50;;
2105;SDS011;1059;52.548;13.408;2022-09-11T04:51:17;20.50;;;12.90;;
2105;SDS011;1059;52.548;13.408;2022-09-11T04:53:46;18.00;;;12.50;;
2105;SDS011;1059;52.548;13.408;2022-09-11T04:56:14;20.30;;;13.30;;
2105;SDS011;1059;52.548;13.408;2022-09-11T04:58:41;18.80;;;13.07;;
2105;SDS011;1059;52.548;13.408;2022-09-11T05:01:10;23.00;;;13.60;;
2105;SDS011;1059;52.548;13.408;2022-09-11T05:03:38;18.50;;;12.10;;
2105;SDS011;1059;52.548;13.408;2022-09-11T05:06:06;20.40;;;13.00;;
2105;SDS011;1059;52.548;13.408;2022-09-11T05:08:34;17.10;;;12.10;;
2105;SDS011;1059;52.548;13.408;2022-09-11T05:11:01;18.90;;;13.47;;
2105;SDS011;1059;52.548;13.408;2022-09-11T05:13:30;17.90;;;12.40;;
2105;SDS011;1059;52.548;13.408;2022-09-11T05:16:00;22.53;;;14.10;;
2105;SDS011;1059;52.548;13.408;2022-09-11T05:18:29;23.20;;;13.47;;
2105;SDS011;1059;52.548;13.408;2022-09-11T05:20:59;17.13;;;12.40;;
2105;SDS011;1059;52.548;13.408;2022-09-11T05:23:26;17.30;;;12.47;;
2105;SDS011;1059;52.548;13.408;2022-09-11T05:25:56;22.03;;;14.60;;
2105;SDS011;1059;52.548;13.408;2022-09-11T05:28:24;18.37;;;14.30;;
2105;SDS011;1059;52.548;13.408;2022-09-11T05:30:51;20.83;;;15.23;;
2105;SDS011;1059;52.548;13.408;2022-09-11T05:33:23;20.17;;;15.27;;
2105;SDS011;1059;52.548;13.408;2022-09-11T05:36:01;20.17;;;15.30;;
2105;SDS011;1059;52.548;13.408;2022-09-11T05:38:29;21.10;;;15.13;;
2105;SDS011;1059;52.548;13.408;2022-09-11T05:40:56;23.40;;;15.33;;
2105;SDS011;1059;52.548;13.408;2022-09-11T05:43:23;21.57;;;14.50;;
2105;SDS011;1059;52.548;13.408;2022-09-11T05:45:52;22.00;;;15.30;;
2105;SDS011;1059;52.548;13.408;2022-09-11T05:48:20;25.57;;;16.47;;
2105;SDS011;1059;52.548;13.408;2022-09-11T05:50:52;25.83;;;16.03;;
2105;SDS011;1059;52.548;13.408;2022-09-11T05:53:19;25.30;;;16.37;;
2105;SDS011;1059;52.548;13.408;2022-09-11T05:55:46;29.30;;;17.60;;
2105;SDS011;1059;52.548;13.408;2022-09-11T05:58:13;25.90;;;17.40;;
2105;SDS011;1059;52.548;13.408;2022-09-11T06:00:41;25.40;;;16.70;;
2105;SDS011;1059;52.548;13.408;2022-09-11T06:03:10;26.13;;;17.27;;
2105;SDS011;1059;52.548;13.408;2022-09-11T06:05:37;29.17;;;18.43;;
2105;SDS011;1059;52.548;13.408;2022-09-11T06:08:05;24.00;;;17.40;;
2105;SDS011;1059;52.548;13.408;2022-09-11T06:10:33;24.83;;;17.40;;
2105;SDS011;1059;52.548;13.408;2022-09-11T06:13:00;27.63;;;18.10;;
2105;SDS011;1059;52.548;13.408;2022-09-11T06:15:27;24.60;;;16.80;;
2105;SDS011;1059;52.548;13.408;2022-09-11T06:17:54;27.30;;;17.47;;
2105;SDS011;1059;52.548;13.408;2022-09-11T06:20:21;25.17;;;16.77;;
2105;SDS011;1059;52.548;13.408;2022-09-11T06:22:48;24.20;;;16.97;;
2105;SDS011;1059;52.548;13.408;2022-09-11T06:25:16;27.17;;;17.20;;
2105;SDS011;1059;52.548;13.408;2022-09-11T06:27:43;22.73;;;15.50;;
2105;SDS011;1059;52.548;13.408;2022-09-11T06:30:10;20.70;;;15.73;;
2105;SDS011;1059;52.548;13.408;2022-09-11T06:32:37;23.07;;;16.30;;
2105;SDS011;1059;52.548;13.408;2022-09-11T06:35:05;21.50;;;15.90;;
2105;SDS011;1059;52.548;13.408;2022-09-11T06:37:32;24.53;;;15.57;;
2105;SDS011;1059;52.548;13.408;2022-09-11T06:40:00;19.50;;;15.07;;
2105;SDS011;1059;52.548;13.408;2022-09-11T06:42:29;21.90;;;15.40;;
2105;SDS011;1059;52.548;13.408;2022-09-11T06:44:57;23.60;;;16.63;;
2105;SDS011;1059;52.548;13.408;2022-09-11T06:47:24;22.70;;;16.50;;
2105;SDS011;1059;52.548;13.408;2022-09-11T06:49:51;19.90;;;14.93;;
2105;SDS011;1059;52.548;13.408;2022-09-11T06:52:18;17.90;;;14.67;;
2105;SDS011;1059;52.548;13.408;2022-09-11T06:54:45;21.57;;;15.97;;
2105;SDS011;1059;52.548;13.408;2022-09-11T06:57:12;20.70;;;15.30;;
2105;SDS011;1059;52.548;13.408;2022-09-11T06:59:40;21.07;;;16.00;;
2105;SDS011;1059;52.548;13.408;2022-09-11T07:02:07;17.50;;;13.27;;
2105;SDS011;1059;52.548;13.408;2022-09-11T07:04:34;20.67;;;15.20;;
2105;SDS011;1059;52.548;13.408;2022-09-11T07:07:01;22.47;;;15.27;;
2105;SDS011;1059;52.548;13.408;2022-09-11T07:09:29;19.17;;;14.10;;
2105;SDS011;1059;52.548;13.408;2022-09-11T07:11:56;21.67;;;14.97;;
2105;SDS011;1059;52.548;13.408;2022-09-11T07:14:23;17.47;;;13.70;;
2105;SDS011;1059;52.548;13.408;2022-09-11T07:16:51;21.83;;;13.27;;
2105;SDS011;1059;52.548;13.408;2022-09-11T07:19:20;16.53;;;12.83;;
2105;SDS011;1059;52.548;13.408;2022-09-11T07:21:48;18.80;;;14.30;;
2105;SDS011;1059;52.548;13.408;2022-09-11T07:24:15;19.17;;;13.27;;
2105;SDS011;1059;52.548;13.408;2022-09-11T07:26:42;16.00;;;13.97;;
2105;SDS011;1059;52.548;13.408;2022-09-11T07:29:09;17.20;;;13.63;;
2105;SDS011;1059;52.548;13.408;2022-09-11T07:31:38;19.00;;;14.13;;
2105;SDS011;1059;52.548;13.408;2022-09-11T07:34:08;16.50;;;13.10;;
2105;SDS011;1059;52.548;13.408;2022-09-11T07:36:35;17.33;;;13.20;;
2105;SDS011;1059;52.548;13.408;2022-09-11T07:39:02;15.83;;;12.07;;
2105;SDS011;1059;52.548;13.408;2022-09-11T07:41:30;17.53;;;13.20;;
2105;SDS011;1059;52.548;13.408;2022-09-11T07:43:58;17.30;;;12.27;;
2105;SDS011;1059;52.548;13.408;2022-09-11T07:46:25;15.00;;;12.27;;
2105;SDS011;1059;52.548;13.408;2022-09-11T07:48:54;17.77;;;12.60;;
2105;SDS011;1059;52.548;13.408;2022-09-11T07:51:22;14.53;;;11.37;;
2105;SDS011;1059;52.548;13.408;2022-09-11T07:53:51;14.80;;;10.90;;
2105;SDS011;1059;52.548;13.408;2022-09-11T07:56:18;15.47;;;12.03;;
2105;SDS011;1059;52.548;13.408;2022-09-11T07:58:47;13.90;;;11.33;;
2105;SDS011;1059;52.548;13.408;2022-09-11T08:01:15;15.60;;;11.87;;
2105;SDS011;1059;52.548;13.408;2022-09-11T08:03:44;16.20;;;12.50;;
2105;SDS011;1059;52.548;13.408;2022-09-11T08:06:12;18.27;;;12.03;;
2105;SDS011;1059;52.548;13.408;2022-09-11T08:08:41;13.40;;;11.30;;
2105;SDS011;1059;52.548;13.408;2022-09-11T08:11:09;15.10;;;11.53;;
2105;SDS011;1059;52.548;13.408;2022-09-11T08:13:45;14.40;;;11.03;;
2105;SDS011;1059;52.548;13.408;2022-09-11T08:16:15;15.13;;;11.70;;
2105;SDS011;1059;52.548;13.408;2022-09-11T08:18:42;14.53;;;11.70;;
2105;SDS011;1059;52.548;13.408;2022-09-11T08:21:09;14.60;;;10.50;;
2105;SDS011;1059;52.548;13.408;2022-09-11T08:23:37;13.83;;;11.70;;
2105;SDS011;1059;52.548;13.408;2022-09-11T08:26:08;12.87;;;11.40;;
2105;SDS011;1059;52.548;13.408;2022-09-11T08:28:36;14.47;;;11.27;;
2105;SDS011;1059;52.548;13.408;2022-09-11T08:31:04;15.10;;;12.10;;
2105;SDS011;1059;52.548;13.408;2022-09-11T08:33:32;12.40;;;10.30;;
2105;SDS011;1059;52.548;13.408;2022-09-11T08:35:59;14.87;;;10.83;;
2105;SDS011;1059;52.548;13.408;2022-09-11T08:38:27;14.90;;;11.43;;
2105;SDS011;1059;52.548;13.408;2022-09-11T08:40:55;15.00;;;10.80;;
2105;SDS011;1059;52.548;13.408;2022-09-11T08:43:25;12.47;;;10.33;;
2105;SDS011;1059;52.548;13.408;2022-09-11T08:45:57;14.33;;;10.97;;
2105;SDS011;1059;52.548;13.408;2022-09-11T08:48:31;18.70;;;10.30;;
2105;SDS011;1059;52.548;13.408;2022-09-11T08:51:04;13.70;;;10.13;;
2105;SDS011;1059;52.548;13.408;2022-09-11T08:53:32;11.30;;;9.80;;
2105;SDS011;1059;52.548;13.408;2022-09-11T08:56:01;14.57;;;9.80;;
2105;SDS011;1059;52.548;13.408;2022-09-11T08:58:33;11.00;;;9.40;;
2105;SDS011;1059;52.548;13.408;2022-09-11T09:01:07;11.60;;;10.37;;
2105;SDS011;1059;52.548;13.408;2022-09-11T09:03:57;10.77;;;9.37;;
2105;SDS011;1059;52.548;13.408;2022-09-11T09:06:38;12.07;;;9.97;;
2105;SDS011;1059;52.548;13.408;2022-09-11T09:09:16;11.30;;;10.03;;
2105;SDS011;1059;52.548;13.408;2022-09-11T09:11:49;11.13;;;9.43;;
2105;SDS011;1059;52.548;13.408;2022-09-11T09:14:25;12.00;;;9.23;;
2105;SDS011;1059;52.548;13.408;2022-09-11T09:17:12;10.80;;;9.70;;
2105;SDS011;1059;52.548;13.408;2022-09-11T09:19:44;9.83;;;8.77;;
2105;SDS011;1059;52.548;13.408;2022-09-11T09:22:19;11.63;;;9.20;;
2105;SDS011;1059;52.548;13.408;2022-09-11T09:24:52;9.90;;;8.80;;
2105;SDS011;1059;52.548;13.408;2022-09-11T09:27:24;10.07;;;8.93;;
2105;SDS011;1059;52.548;13.408;2022-09-11T09:29:57;9.60;;;8.60;;
2105;SDS011;1059;52.548;13.408;2022-09-11T09:32:28;12.73;;;10.37;;
2105;SDS011;1059;52.548;13.408;2022-09-11T09:34:58;11.40;;;10.00;;
2105;SDS011;1059;52.548;13.408;2022-09-11T09:37:29;10.50;;;9.20;;
2105;SDS011;1059;52.548;13.408;2022-09-11T09:39:55;17.97;;;10.20;;
2105;SDS011;1059;52.548;13.408;2022-09-11T09:42:31;10.90;;;9.50;;
2105;SDS011;1059;52.548;13.408;2022-09-11T09:45:35;10.90;;;8.50;;
2105;SDS011;1059;52.548;13.408;2022-09-11T09:48:06;9.90;;;8.87;;
2105;SDS011;1059;52.548;13.408;2022-09-11T09:50:36;11.63;;;9.33;;
2105;SDS011;1059;52.548;13.408;2022-09-11T09:53:08;11.87;;;8.50;;
2105;SDS011;1059;52.548;13.408;2022-09-11T09:55:40;11.53;;;9.40;;
2105;SDS011;1059;52.548;13.408;2022-09-11T09:58:08;10.07;;;8.63;;
2105;SDS011;1059;52.548;13.408;2022-09-11T10:00:37;9.67;;;8.40;;
2105;SDS011;1059;52.548;13.408;2022-09-11T10:03:18;11.13;;;9.37;;
2105;SDS011;1059;52.548;13.408;2022-09-11T10:05:46;10.83;;;9.73;;
2105;SDS011;1059;52.548;13.408;2022-09-11T10:10:59;11.70;;;8.77;;
2105;SDS011;1059;52.548;13.408;2022-09-11T10:13:28;9.50;;;8.30;;
2105;SDS011;1059;52.548;13.408;2022-09-11T10:15:59;11.03;;;8.47;;
2105;SDS011;1059;52.548;13.408;2022-09-11T10:18:34;8.90;;;8.00;;
2105;SDS011;1059;52.548;13.408;2022-09-11T10:21:23;10.53;;;9.30;;
2105;SDS011;1059;52.548;13.408;2022-09-11T10:23:54;10.50;;;8.90;;
2105;SDS011;1059;52.548;13.408;2022-09-11T10:26:23;10.40;;;8.30;;
2105;SDS011;1059;52.548;13.408;2022-09-11T10:28:54;9.57;;;8.57;;
2105;SDS011;1059;52.548;13.408;2022-09-11T10:31:26;12.30;;;10.53;;
2105;SDS011;1059;52.548;13.408;2022-09-11T10:33:54;19.37;;;17.27;;
2105;SDS011;1059;52.548;13.408;2022-09-11T10:36:24;11.60;;;9.50;;
2105;SDS011;1059;52.548;13.408;2022-09-11T10:38:52;8.23;;;7.30;;
2105;SDS011;1059;52.548;13.408;2022-09-11T10:41:21;8.23;;;6.77;;
2105;SDS011;1059;52.548;13.408;2022-09-11T10:43:52;7.33;;;6.63;;
2105;SDS011;1059;52.548;13.408;2022-09-11T10:46:23;7.90;;;7.20;;
2105;SDS011;1059;52.548;13.408;2022-09-11T10:48:58;9.30;;;7.80;;
2105;SDS011;1059;52.548;13.408;2022-09-11T10:51:33;9.77;;;7.80;;
2105;SDS011;1059;52.548;13.408;2022-09-11T10:54:03;12.63;;;9.10;;
2105;SDS011;1059;52.548;13.408;2022-09-11T10:56:51;8.80;;;7.90;;
2105;SDS011;1059;52.548;13.408;2022-09-11T10:59:27;10.13;;;7.80;;
2105;SDS011;1059;52.548;13.408;2022-09-11T11:02:02;8.23;;;6.97;;
2105;SDS011;1059;52.548;13.408;2022-09-11T11:04:30;9.10;;;6.67;;
2105;SDS011;1059;52.548;13.408;2022-09-11T11:07:00;8.97;;;7.77;;
2105;SDS011;1059;52.548;13.408;2022-09-11T11:09:39;8.33;;;7.47;;
2105;SDS011;1059;52.548;13.408;2022-09-11T11:12:22;8.20;;;7.13;;
2105;SDS011;1059;52.548;13.408;2022-09-11T11:15:08;8.27;;;7.10;;
2105;SDS011;1059;52.548;13.408;2022-09-11T11:17:49;9.43;;;7.20;;
2105;SDS011;1059;52.548;13.408;2022-09-11T11:20:30;9.27;;;6.67;;
2105;SDS011;1059;52.548;13.408;2022-09-11T11:23:14;9.10;;;8.00;;
2105;SDS011;1059;52.548;13.408;2022-09-11T11:26:11;7.50;;;6.67;;
2105;SDS011;1059;52.548;13.408;2022-09-11T11:28:55;6.60;;;6.00;;
2105;SDS011;1059;52.548;13.408;2022-09-11T11:31:36;7.97;;;6.77;;
2105;SDS011;1059;52.548;13.408;2022-09-11T11:34:23;6.53;;;5.93;;
2105;SDS011;1059;52.548;13.408;2022-09-11T11:37:00;6.93;;;6.30;;
2105;SDS011;1059;52.548;13.408;2022-09-11T11:39:31;5.77;;;5.23;;
2105;SDS011;1059;52.548;13.408;2022-09-11T11:42:06;5.83;;;5.33;;
2105;SDS011;1059;52.548;13.408;2022-09-11T11:44:39;7.00;;;6.30;;
2105;SDS011;1059;52.548;13.408;2022-09-11T11:47:11;7.60;;;5.97;;
2105;SDS011;1059;52.548;13.408;2022-09-11T11:49:45;8.23;;;7.43;;
2105;SDS011;1059;52.548;13.408;2022-09-11T11:52:22;5.70;;;5.20;;
2105;SDS011;1059;52.548;13.408;2022-09-11T11:54:58;5.20;;;4.70;;
2105;SDS011;1059;52.548;13.408;2022-09-11T11:57:32;7.43;;;6.73;;
2105;SDS011;1059;52.548;13.408;2022-09-11T12:00:07;4.53;;;4.13;;
2105;SDS011;1059;52.548;13.408;2022-09-11T12:02:38;5.30;;;4.80;;
2105;SDS011;1059;52.548;13.408;2022-09-11T12:05:12;6.17;;;4.70;;
2105;SDS011;1059;52.548;13.408;2022-09-11T12:07:42;4.93;;;4.50;;
2105;SDS011;1059;52.548;13.408;2022-09-11T12:10:17;9.83;;;5.10;;
2105;SDS011;1059;52.548;13.408;2022-09-11T12:12:59;4.20;;;3.90;;
2105;SDS011;1059;52.548;13.408;2022-09-11T12:15:28;4.70;;;4.27;;
2105;SDS011;1059;52.548;13.408;2022-09-11T12:17:59;5.33;;;4.83;;
2105;SDS011;1059;52.548;13.408;2022-09-11T12:20:30;8.07;;;5.07;;
2105;SDS011;1059;52.548;13.408;2022-09-11T12:23:03;6.50;;;5.90;;
2105;SDS011;1059;52.548;13.408;2022-09-11T12:25:48;6.33;;;5.50;;
2105;SDS011;1059;52.548;13.408;2022-09-11T12:28:28;7.33;;;5.50;;
2105;SDS011;1059;52.548;13.408;2022-09-11T12:31:00;6.30;;;5.70;;
2105;SDS011;1059;52.548;13.408;2022-09-11T12:33:51;6.70;;;6.00;;
2105;SDS011;1059;52.548;13.408;2022-09-11T12:36:45;7.60;;;6.80;;
2105;SDS011;1059;52.548;13.408;2022-09-11T12:39:21;6.40;;;5.47;;
2105;SDS011;1059;52.548;13.408;2022-09-11T12:41:52;7.10;;;6.10;;
2105;SDS011;1059;52.548;13.408;2022-09-11T12:44:55;5.77;;;5.17;;
2105;SDS011;1059;52.548;13.408;2022-09-11T12:47:24;4.43;;;4.03;;
2105;SDS011;1059;52.548;13.408;2022-09-11T12:49:53;5.17;;;4.23;;
2105;SDS011;1059;52.548;13.408;2022-09-11T12:52:27;4.57;;;4.13;;
2105;SDS011;1059;52.548;13.408;2022-09-11T12:55:02;5.50;;;5.00;;
2105;SDS011;1059;52.548;13.408;2022-09-11T12:57:34;4.40;;;4.00;;
2105;SDS011;1059;52.548;13.408;2022-09-11T13:00:05;4.97;;;4.27;;
2105;SDS011;1059;52.548;13.408;2022-09-11T13:02:46;14.07;;;4.80;;
2105;SDS011;1059;52.548;13.408;2022-09-11T13:05:19;4.70;;;4.30;;
2105;SDS011;1059;52.548;13.408;2022-09-11T13:07:52;5.43;;;4.30;;
2105;SDS011;1059;52.548;13.408;2022-09-11T13:10:28;3.70;;;3.40;;
2105;SDS011;1059;52.548;13.408;2022-09-11T13:12:57;4.10;;;3.80;;
2105;SDS011;1059;52.548;13.408;2022-09-11T13:15:30;4.70;;;4.13;;
2105;SDS011;1059;52.548;13.408;2022-09-11T13:18:29;4.77;;;4.07;;
2105;SDS011;1059;52.548;13.408;2022-09-11T13:21:00;4.83;;;4.33;;
2105;SDS011;1059;52.548;13.408;2022-09-11T13:23:39;6.97;;;4.90;;
2105;SDS011;1059;52.548;13.408;2022-09-11T13:26:07;12.00;;;6.53;;
2105;SDS011;1059;52.548;13.408;2022-09-11T13:28:49;8.13;;;6.03;;
2105;SDS011;1059;52.548;13.408;2022-09-11T13:31:18;7.20;;;5.07;;
2105;SDS011;1059;52.548;13.408;2022-09-11T13:33:51;6.83;;;6.13;;
2105;SDS011;1059;52.548;13.408;2022-09-11T13:36:20;5.00;;;4.43;;
2105;SDS011;1059;52.548;13.408;2022-09-11T13:38:51;4.87;;;4.37;;
2105;SDS011;1059;52.548;13.408;2022-09-11T13:41:20;5.67;;;4.67;;
2105;SDS011;1059;52.548;13.408;2022-09-11T13:43:52;4.47;;;4.17;;
2105;SDS011;1059;52.548;13.408;2022-09-11T13:46:22;5.13;;;4.63;;
2105;SDS011;1059;52.548;13.408;2022-09-11T13:48:51;6.57;;;5.13;;
2105;SDS011;1059;52.548;13.408;2022-09-11T13:51:23;6.90;;;6.07;;
2105;SDS011;1059;52.548;13.408;2022-09-11T13:54:05;7.20;;;5.40;;
2105;SDS011;1059;52.548;13.408;2022-09-11T13:56:40;6.50;;;3.53;;
2105;SDS011;1059;52.548;13.408;2022-09-11T13:59:25;4.10;;;3.07;;
2105;SDS011;1059;52.548;13.408;2022-09-11T14:02:00;4.20;;;3.40;;
2105;SDS011;1059;52.548;13.408;2022-09-11T14:04:29;3.30;;;3.00;;
2105;SDS011;1059;52.548;13.408;2022-09-11T14:06:57;3.57;;;3.27;;
2105;SDS011;1059;52.548;13.408;2022-09-11T14:09:25;2.60;;;2.40;;
2105;SDS011;1059;52.548;13.408;2022-09-11T14:11:52;3.27;;;2.70;;
2105;SDS011;1059;52.548;13.408;2022-09-11T14:14:20;2.03;;;1.90;;
2105;SDS011;1059;52.548;13.408;2022-09-11T14:16:51;2.90;;;2.70;;
2105;SDS011;1059;52.548;13.408;2022-09-11T14:19:22;3.13;;;2.40;;
2105;SDS011;1059;52.548;13.408;2022-09-11T14:21:51;2.17;;;1.80;;
2105;SDS011;1059;52.548;13.408;2022-09-11T14:24:23;4.27;;;3.87;;
2105;SDS011;1059;52.548;13.408;2022-09-11T14:26:54;2.23;;;2.03;;
2105;SDS011;1059;52.548;13.408;2022-09-11T14:29:23;2.50;;;2.30;;
2105;SDS011;1059;52.548;13.408;2022-09-11T14:31:52;2.70;;;2.20;;
2105;SDS011;1059;52.548;13.408;2022-09-11T14:34:20;2.30;;;2.10;;
2105;SDS011;1059;52.548;13.408;2022-09-11T14:36:51;2.33;;;2.13;;
2105;SDS011;1059;52.548;13.408;2022-09-11T14:39:24;2.20;;;2.00;;
2105;SDS011;1059;52.548;13.408;2022-09-11T14:41:55;3.30;;;2.60;;
2105;SDS011;1059;52.548;13.408;2022-09-11T14:44:23;2.63;;;2.00;;
2105;SDS011;1059;52.548;13.408;2022-09-11T14:46:51;2.73;;;2.53;;
2105;SDS011;1059;52.548;13.408;2022-09-11T14:49:18;2.70;;;2.50;;
2105;SDS011;1059;52.548;13.408;2022-09-11T14:51:46;2.43;;;2.23;;
2105;SDS011;1059;52.548;13.408;2022-09-11T14:54:18;3.67;;;3.00;;
2105;SDS011;1059;52.548;13.408;2022-09-11T14:56:47;3.07;;;2.77;;
2105;SDS011;1059;52.548;13.408;2022-09-11T14:59:14;3.17;;;2.97;;
2105;SDS011;1059;52.548;13.408;2022-09-11T15:01:41;2.63;;;2.43;;
2105;SDS011;1059;52.548;13.408;2022-09-11T15:04:09;4.07;;;2.47;;
2105;SDS011;1059;52.548;13.408;2022-09-11T15:06:41;2.83;;;2.63;;
2105;SDS011;1059;52.548;13.408;2022-09-11T15:09:08;4.07;;;3.77;;
2105;SDS011;1059;52.548;13.408;2022-09-11T15:11:35;6.43;;;3.80;;
2105;SDS011;1059;52.548;13.408;2022-09-11T15:14:03;3.87;;;2.93;;
2105;SDS011;1059;52.548;13.408;2022-09-11T15:16:32;2.77;;;2.57;;
2105;SDS011;1059;52.548;13.408;2022-09-11T15:18:59;3.43;;;3.10;;